sensor_id;sensor_type;location;lat;lon;timestamp;pressure;altitude;pressure_sealevel;temperature
75811;BMP280;64449;50.016;19.954;2023-02-11T00:01:31;100356.14;;;2.46
75811;BMP280;64449;50.016;19.954;2023-02-11T00:04:00;100357.69;;;2.43
75811;BMP280;64449;50.016;19.954;2023-02-11T00:06:27;100354.61;;;2.40
75811;BMP280;64449;50.016;19.954;2023-02-11T00:08:53;100353.83;;;2.37
75811;BMP280;64449;50.016;19.954;2023-02-11T00:11:20;100350.93;;;2.35
75811;BMP280;64449;50.016;19.954;2023-02-11T00:13:46;100346.91;;;2.34
75811;BMP280;64449;50.016;19.954;2023-02-11T00:16:18;100346.86;;;2.32
75811;BMP280;64449;50.016;19.954;2023-02-11T00:18:44;100346.41;;;2.30
75811;BMP280;64449;50.016;19.954;2023-02-11T00:21:12;100344.16;;;2.30
75811;BMP280;64449;50.016;19.954;2023-02-11T00:23:38;100338.18;;;2.29
75811;BMP280;64449;50.016;19.954;2023-02-11T00:26:09;100333.21;;;2.28
75811;BMP280;64449;50.016;19.954;2023-02-11T00:28:35;100332.19;;;2.27
75811;BMP280;64449;50.016;19.954;2023-02-11T00:31:01;100329.31;;;2.25
75811;BMP280;64449;50.016;19.954;2023-02-11T00:33:26;100324.55;;;2.22
75811;BMP280;64449;50.016;19.954;2023-02-11T00:35:51;100320.37;;;2.20
75811;BMP280;64449;50.016;19.954;2023-02-11T00:38:17;100319.92;;;2.16
75811;BMP280;64449;50.016;19.954;2023-02-11T00:40:42;100318.66;;;2.13
75811;BMP280;64449;50.016;19.954;2023-02-11T00:43:08;100316.56;;;2.08
75811;BMP280;64449;50.016;19.954;2023-02-11T00:45:33;100314.95;;;2.02
75811;BMP280;64449;50.016;19.954;2023-02-11T00:47:58;100315.39;;;1.98
75811;BMP280;64449;50.016;19.954;2023-02-11T00:50:24;100318.61;;;1.94
75811;BMP280;64449;50.016;19.954;2023-02-11T00:52:50;100316.95;;;1.90
75811;BMP280;64449;50.016;19.954;2023-02-11T00:55:16;100309.68;;;1.85
75811;BMP280;64449;50.016;19.954;2023-02-11T00:57:42;100303.03;;;1.80
75811;BMP280;64449;50.016;19.954;2023-02-11T01:00:08;100295.52;;;1.75
75811;BMP280;64449;50.016;19.954;2023-02-11T01:02:33;100289.04;;;1.70
75811;BMP280;64449;50.016;19.954;2023-02-11T01:04:59;100285.13;;;1.65
75811;BMP280;64449;50.016;19.954;2023-02-11T01:07:26;100283.32;;;1.60
75811;BMP280;64449;50.016;19.954;2023-02-11T01:09:52;100280.25;;;1.55
75811;BMP280;64449;50.016;19.954;2023-02-11T01:12:17;100272.02;;;1.51
75811;BMP280;64449;50.016;19.954;2023-02-11T01:14:42;100260.38;;;1.46
75811;BMP280;64449;50.016;19.954;2023-02-11T01:17:08;100249.76;;;1.41
75811;BMP280;64449;50.016;19.954;2023-02-11T01:19:35;100235.48;;;1.36
75811;BMP280;64449;50.016;19.954;2023-02-11T01:22:01;100227.35;;;1.33
75811;BMP280;64449;50.016;19.954;2023-02-11T01:24:26;100224.51;;;1.30
75811;BMP280;64449;50.016;19.954;2023-02-11T01:26:52;100219.13;;;1.25
75811;BMP280;64449;50.016;19.954;2023-02-11T01:29:17;100214.50;;;1.22
75811;BMP280;64449;50.016;19.954;2023-02-11T01:31:43;100220.08;;;1.18
75811;BMP280;64449;50.016;19.954;2023-02-11T01:34:08;100228.01;;;1.13
75811;BMP280;64449;50.016;19.954;2023-02-11T01:36:34;100228.56;;;1.09
75811;BMP280;64449;50.016;19.954;2023-02-11T01:38:59;100226.64;;;1.07
75811;BMP280;64449;50.016;19.954;2023-02-11T01:41:24;100224.70;;;1.04
75811;BMP280;64449;50.016;19.954;2023-02-11T01:43:50;100217.42;;;1.02
75811;BMP280;64449;50.016;19.954;2023-02-11T01:46:34;100212.84;;;1.00
75811;BMP280;64449;50.016;19.954;2023-02-11T01:49:11;100203.11;;;0.96
75811;BMP280;64449;50.016;19.954;2023-02-11T01:51:43;100203.20;;;0.93
75811;BMP280;64449;50.016;19.954;2023-02-11T01:54:12;100206.98;;;0.91
75811;BMP280;64449;50.016;19.954;2023-02-11T01:56:58;100200.73;;;0.90
75811;BMP280;64449;50.016;19.954;2023-02-11T01:59:47;100184.41;;;0.90
75811;BMP280;64449;50.016;19.954;2023-02-11T02:02:20;100177.44;;;0.91
75811;BMP280;64449;50.016;19.954;2023-02-11T02:04:54;100165.71;;;0.93
75811;BMP280;64449;50.016;19.954;2023-02-11T02:07:29;100165.39;;;0.94
75811;BMP280;64449;50.016;19.954;2023-02-11T02:10:04;100171.59;;;0.96
75811;BMP280;64449;50.016;19.954;2023-02-11T02:12:30;100158.42;;;0.97
75811;BMP280;64449;50.016;19.954;2023-02-11T02:15:17;100158.10;;;0.97
75811;BMP280;64449;50.016;19.954;2023-02-11T02:17:50;100164.59;;;0.98
75811;BMP280;64449;50.016;19.954;2023-02-11T02:34:00;100177.29;;;0.89
75811;BMP280;64449;50.016;19.954;2023-02-11T02:36:39;100181.95;;;0.88
75811;BMP280;64449;50.016;19.954;2023-02-11T02:39:17;100185.79;;;0.88
75811;BMP280;64449;50.016;19.954;2023-02-11T02:41:45;100188.17;;;0.90
75811;BMP280;64449;50.016;19.954;2023-02-11T02:44:11;100190.75;;;0.94
75811;BMP280;64449;50.016;19.954;2023-02-11T02:46:36;100182.10;;;0.96
75811;BMP280;64449;50.016;19.954;2023-02-11T02:49:02;100172.14;;;1.00
75811;BMP280;64449;50.016;19.954;2023-02-11T02:52:03;100165.04;;;1.03
75811;BMP280;64449;50.016;19.954;2023-02-11T03:08:11;100125.65;;;1.21
75811;BMP280;64449;50.016;19.954;2023-02-11T03:10:42;100127.71;;;1.22
75811;BMP280;64449;50.016;19.954;2023-02-11T03:13:08;100126.41;;;1.24
75811;BMP280;64449;50.016;19.954;2023-02-11T03:15:39;100120.85;;;1.26
75811;BMP280;64449;50.016;19.954;2023-02-11T03:18:08;100109.88;;;1.26
75811;BMP280;64449;50.016;19.954;2023-02-11T03:20:36;100094.60;;;1.28
75811;BMP280;64449;50.016;19.954;2023-02-11T03:23:11;100082.86;;;1.29
75811;BMP280;64449;50.016;19.954;2023-02-11T03:25:49;100076.38;;;1.27
75811;BMP280;64449;50.016;19.954;2023-02-11T03:28:26;100056.63;;;1.27
75811;BMP280;64449;50.016;19.954;2023-02-11T03:31:00;100043.56;;;1.30
75811;BMP280;64449;50.016;19.954;2023-02-11T03:33:54;100041.08;;;1.32
75811;BMP280;64449;50.016;19.954;2023-02-11T03:36:27;100030.25;;;1.33
75811;BMP280;64449;50.016;19.954;2023-02-11T03:38:56;100025.77;;;1.33
75811;BMP280;64449;50.016;19.954;2023-02-11T03:41:23;100026.38;;;1.34
75811;BMP280;64449;50.016;19.954;2023-02-11T03:43:52;100014.05;;;1.35
75811;BMP280;64449;50.016;19.954;2023-02-11T03:46:27;100011.58;;;1.36
75811;BMP280;64449;50.016;19.954;2023-02-11T03:48:58;100003.63;;;1.36
75811;BMP280;64449;50.016;19.954;2023-02-11T03:51:26;100006.90;;;1.37
75811;BMP280;64449;50.016;19.954;2023-02-11T03:53:53;100003.63;;;1.37
75811;BMP280;64449;50.016;19.954;2023-02-11T03:56:23;100011.04;;;1.38
75811;BMP280;64449;50.016;19.954;2023-02-11T03:58:50;100009.69;;;1.41
75811;BMP280;64449;50.016;19.954;2023-02-11T04:01:15;100011.64;;;1.43
75811;BMP280;64449;50.016;19.954;2023-02-11T04:03:41;100003.48;;;1.47
75811;BMP280;64449;50.016;19.954;2023-02-11T04:06:06;100006.23;;;1.51
75811;BMP280;64449;50.016;19.954;2023-02-11T04:08:32;100003.63;;;1.53
75811;BMP280;64449;50.016;19.954;2023-02-11T04:10:58;100002.70;;;1.56
75811;BMP280;64449;50.016;19.954;2023-02-11T04:13:23;99997.70;;;1.60
75811;BMP280;64449;50.016;19.954;2023-02-11T04:15:49;99989.46;;;1.64
75811;BMP280;64449;50.016;19.954;2023-02-11T04:18:14;99984.53;;;1.68
75811;BMP280;64449;50.016;19.954;2023-02-11T04:20:40;99976.11;;;1.71
75811;BMP280;64449;50.016;19.954;2023-02-11T04:23:05;99964.40;;;1.73
75811;BMP280;64449;50.016;19.954;2023-02-11T04:25:30;99958.21;;;1.74
75811;BMP280;64449;50.016;19.954;2023-02-11T04:27:56;99957.33;;;1.74
75811;BMP280;64449;50.016;19.954;2023-02-11T04:30:21;99954.13;;;1.75
75811;BMP280;64449;50.016;19.954;2023-02-11T04:32:47;99942.33;;;1.75
75811;BMP280;64449;50.016;19.954;2023-02-11T04:35:12;99937.35;;;1.75
75811;BMP280;64449;50.016;19.954;2023-02-11T04:37:38;99929.14;;;1.74
75811;BMP280;64449;50.016;19.954;2023-02-11T04:40:04;99924.80;;;1.72
75811;BMP280;64449;50.016;19.954;2023-02-11T04:42:29;99917.19;;;1.70
75811;BMP280;64449;50.016;19.954;2023-02-11T04:44:55;99919.27;;;1.70
75811;BMP280;64449;50.016;19.954;2023-02-11T04:47:20;99924.05;;;1.70
75811;BMP280;64449;50.016;19.954;2023-02-11T04:49:46;99926.67;;;1.71
75811;BMP280;64449;50.016;19.954;2023-02-11T04:52:11;99926.30;;;1.73
75811;BMP280;64449;50.016;19.954;2023-02-11T04:54:36;99929.67;;;1.75
75811;BMP280;64449;50.016;19.954;2023-02-11T04:57:02;99926.95;;;1.78
75811;BMP280;64449;50.016;19.954;2023-02-11T04:59:28;99925.76;;;1.82
75811;BMP280;64449;50.016;19.954;2023-02-11T05:01:53;99928.77;;;1.86
75811;BMP280;64449;50.016;19.954;2023-02-11T05:04:19;99930.93;;;1.89
75811;BMP280;64449;50.016;19.954;2023-02-11T05:06:44;99938.73;;;1.92
75811;BMP280;64449;50.016;19.954;2023-02-11T05:09:11;99945.80;;;1.96
75811;BMP280;64449;50.016;19.954;2023-02-11T05:11:37;99955.63;;;2.00
75811;BMP280;64449;50.016;19.954;2023-02-11T05:14:04;99952.56;;;2.01
75811;BMP280;64449;50.016;19.954;2023-02-11T05:16:30;99942.59;;;2.02
75811;BMP280;64449;50.016;19.954;2023-02-11T05:18:56;99933.84;;;2.02
75811;BMP280;64449;50.016;19.954;2023-02-11T05:21:21;99932.98;;;2.02
75811;BMP280;64449;50.016;19.954;2023-02-11T05:23:47;99930.07;;;2.01
75811;BMP280;64449;50.016;19.954;2023-02-11T05:26:13;99922.55;;;2.00
75811;BMP280;64449;50.016;19.954;2023-02-11T05:28:39;99923.89;;;1.97
75811;BMP280;64449;50.016;19.954;2023-02-11T05:31:05;99924.21;;;1.94
75811;BMP280;64449;50.016;19.954;2023-02-11T05:33:31;99918.28;;;1.95
75811;BMP280;64449;50.016;19.954;2023-02-11T05:35:58;99924.95;;;1.98
75811;BMP280;64449;50.016;19.954;2023-02-11T05:38:24;99925.41;;;2.02
75811;BMP280;64449;50.016;19.954;2023-02-11T05:40:50;99922.36;;;2.04
75811;BMP280;64449;50.016;19.954;2023-02-11T05:43:15;99935.83;;;2.08
75811;BMP280;64449;50.016;19.954;2023-02-11T05:45:41;99943.77;;;2.11
75811;BMP280;64449;50.016;19.954;2023-02-11T05:48:06;99946.20;;;2.15
75811;BMP280;64449;50.016;19.954;2023-02-11T05:50:31;99940.80;;;2.17
75811;BMP280;64449;50.016;19.954;2023-02-11T05:52:57;99944.86;;;2.22
75811;BMP280;64449;50.016;19.954;2023-02-11T05:55:22;99939.75;;;2.26
75811;BMP280;64449;50.016;19.954;2023-02-11T05:57:47;99932.22;;;2.30
75811;BMP280;64449;50.016;19.954;2023-02-11T06:00:13;99931.88;;;2.31
75811;BMP280;64449;50.016;19.954;2023-02-11T06:02:39;99940.48;;;2.33
75811;BMP280;64449;50.016;19.954;2023-02-11T06:05:04;99946.38;;;2.35
75811;BMP280;64449;50.016;19.954;2023-02-11T06:07:30;99955.45;;;2.39
75811;BMP280;64449;50.016;19.954;2023-02-11T06:09:55;99963.16;;;2.42
75811;BMP280;64449;50.016;19.954;2023-02-11T06:12:21;99963.08;;;2.44
75811;BMP280;64449;50.016;19.954;2023-02-11T06:14:47;99954.89;;;2.47
75811;BMP280;64449;50.016;19.954;2023-02-11T06:17:12;99949.52;;;2.50
75811;BMP280;64449;50.016;19.954;2023-02-11T06:19:38;99946.48;;;2.52
75811;BMP280;64449;50.016;19.954;2023-02-11T06:22:03;99931.00;;;2.54
75811;BMP280;64449;50.016;19.954;2023-02-11T06:24:29;99902.92;;;2.53
75811;BMP280;64449;50.016;19.954;2023-02-11T06:26:54;99870.02;;;2.51
75811;BMP280;64449;50.016;19.954;2023-02-11T06:29:19;99836.23;;;2.48
75811;BMP280;64449;50.016;19.954;2023-02-11T06:31:45;99813.80;;;2.43
75811;BMP280;64449;50.016;19.954;2023-02-11T06:34:10;99817.35;;;2.38
75811;BMP280;64449;50.016;19.954;2023-02-11T06:36:38;99825.95;;;2.31
75811;BMP280;64449;50.016;19.954;2023-02-11T06:39:05;99827.63;;;2.24
75811;BMP280;64449;50.016;19.954;2023-02-11T06:41:31;99836.17;;;2.17
75811;BMP280;64449;50.016;19.954;2023-02-11T06:43:56;99836.80;;;2.13
75811;BMP280;64449;50.016;19.954;2023-02-11T06:46:22;99838.88;;;2.09
75811;BMP280;64449;50.016;19.954;2023-02-11T06:48:47;99844.07;;;2.06
75811;BMP280;64449;50.016;19.954;2023-02-11T06:51:13;99842.25;;;2.06
75811;BMP280;64449;50.016;19.954;2023-02-11T06:53:41;99839.84;;;2.07
75811;BMP280;64449;50.016;19.954;2023-02-11T06:56:10;99838.16;;;2.08
75811;BMP280;64449;50.016;19.954;2023-02-11T06:58:36;99828.27;;;2.09
75811;BMP280;64449;50.016;19.954;2023-02-11T07:01:07;99833.36;;;2.12
75811;BMP280;64449;50.016;19.954;2023-02-11T07:03:33;99847.60;;;2.14
75811;BMP280;64449;50.016;19.954;2023-02-11T07:06:01;99853.43;;;2.18
75811;BMP280;64449;50.016;19.954;2023-02-11T07:08:26;99861.13;;;2.24
75811;BMP280;64449;50.016;19.954;2023-02-11T07:10:52;99868.11;;;2.29
75811;BMP280;64449;50.016;19.954;2023-02-11T07:13:17;99868.48;;;2.34
75811;BMP280;64449;50.016;19.954;2023-02-11T07:15:42;99872.42;;;2.41
75811;BMP280;64449;50.016;19.954;2023-02-11T07:18:08;99865.55;;;2.48
75811;BMP280;64449;50.016;19.954;2023-02-11T07:20:33;99862.93;;;2.55
75811;BMP280;64449;50.016;19.954;2023-02-11T07:22:59;99864.61;;;2.61
75811;BMP280;64449;50.016;19.954;2023-02-11T07:25:24;99873.61;;;2.67
75811;BMP280;64449;50.016;19.954;2023-02-11T07:27:49;99880.77;;;2.73
75811;BMP280;64449;50.016;19.954;2023-02-11T07:30:15;99883.61;;;2.79
75811;BMP280;64449;50.016;19.954;2023-02-11T07:32:40;99875.50;;;2.84
75811;BMP280;64449;50.016;19.954;2023-02-11T07:35:06;99868.82;;;2.89
75811;BMP280;64449;50.016;19.954;2023-02-11T07:37:34;99857.84;;;2.94
75811;BMP280;64449;50.016;19.954;2023-02-11T07:40:00;99853.34;;;2.97
75811;BMP280;64449;50.016;19.954;2023-02-11T07:42:25;99846.38;;;3.02
75811;BMP280;64449;50.016;19.954;2023-02-11T07:44:51;99840.68;;;3.06
75811;BMP280;64449;50.016;19.954;2023-02-11T07:47:16;99838.88;;;3.11
75811;BMP280;64449;50.016;19.954;2023-02-11T07:49:42;99839.98;;;3.18
75811;BMP280;64449;50.016;19.954;2023-02-11T07:52:07;99832.04;;;3.24
75811;BMP280;64449;50.016;19.954;2023-02-11T07:54:33;99834.48;;;3.29
75811;BMP280;64449;50.016;19.954;2023-02-11T07:56:58;99835.92;;;3.37
75811;BMP280;64449;50.016;19.954;2023-02-11T07:59:23;99841.90;;;3.45
75811;BMP280;64449;50.016;19.954;2023-02-11T08:01:49;99841.44;;;3.54
75811;BMP280;64449;50.016;19.954;2023-02-11T08:04:16;99833.53;;;3.62
75811;BMP280;64449;50.016;19.954;2023-02-11T08:06:42;99833.77;;;3.73
75811;BMP280;64449;50.016;19.954;2023-02-11T08:09:13;99841.05;;;3.86
75811;BMP280;64449;50.016;19.954;2023-02-11T08:11:39;99834.42;;;4.01
75811;BMP280;64449;50.016;19.954;2023-02-11T08:14:04;99834.75;;;4.15
75811;BMP280;64449;50.016;19.954;2023-02-11T08:16:33;99833.38;;;4.28
75811;BMP280;64449;50.016;19.954;2023-02-11T08:19:02;99836.05;;;4.38
75811;BMP280;64449;50.016;19.954;2023-02-11T08:21:28;99831.40;;;4.49
75811;BMP280;64449;50.016;19.954;2023-02-11T08:23:54;99822.55;;;4.60
75811;BMP280;64449;50.016;19.954;2023-02-11T08:26:27;99813.86;;;4.74
75811;BMP280;64449;50.016;19.954;2023-02-11T08:28:54;99810.85;;;4.93
75811;BMP280;64449;50.016;19.954;2023-02-11T08:31:22;99812.44;;;5.20
75811;BMP280;64449;50.016;19.954;2023-02-11T08:33:48;99814.45;;;5.51
75811;BMP280;64449;50.016;19.954;2023-02-11T08:36:19;99815.92;;;5.82
75811;BMP280;64449;50.016;19.954;2023-02-11T08:38:45;99821.02;;;6.08
75811;BMP280;64449;50.016;19.954;2023-02-11T08:41:11;99811.13;;;6.29
75811;BMP280;64449;50.016;19.954;2023-02-11T08:43:39;99809.51;;;6.45
75811;BMP280;64449;50.016;19.954;2023-02-11T08:46:07;99817.84;;;6.61
75811;BMP280;64449;50.016;19.954;2023-02-11T08:48:33;99825.59;;;6.78
75811;BMP280;64449;50.016;19.954;2023-02-11T08:50:59;99823.36;;;6.92
75811;BMP280;64449;50.016;19.954;2023-02-11T08:53:24;99827.48;;;7.10
75811;BMP280;64449;50.016;19.954;2023-02-11T08:55:51;99829.84;;;7.36
75811;BMP280;64449;50.016;19.954;2023-02-11T08:58:17;99824.08;;;7.66
75811;BMP280;64449;50.016;19.954;2023-02-11T09:00:43;99822.33;;;8.01
75811;BMP280;64449;50.016;19.954;2023-02-11T09:03:10;99819.82;;;8.31
75811;BMP280;64449;50.016;19.954;2023-02-11T09:05:40;99816.73;;;8.64
75811;BMP280;64449;50.016;19.954;2023-02-11T09:08:06;99809.08;;;9.05
75811;BMP280;64449;50.016;19.954;2023-02-11T09:10:31;99807.21;;;9.46
75811;BMP280;64449;50.016;19.954;2023-02-11T09:12:58;99809.30;;;9.84
75811;BMP280;64449;50.016;19.954;2023-02-11T09:15:24;99813.00;;;10.09
75811;BMP280;64449;50.016;19.954;2023-02-11T09:17:49;99805.10;;;10.27
75811;BMP280;64449;50.016;19.954;2023-02-11T09:20:15;99805.75;;;10.41
75811;BMP280;64449;50.016;19.954;2023-02-11T09:22:40;99807.17;;;10.51
75811;BMP280;64449;50.016;19.954;2023-02-11T09:25:05;99809.30;;;10.67
75811;BMP280;64449;50.016;19.954;2023-02-11T09:27:31;99803.44;;;10.82
75811;BMP280;64449;50.016;19.954;2023-02-11T09:29:56;99790.95;;;10.83
75811;BMP280;64449;50.016;19.954;2023-02-11T09:32:22;99783.80;;;10.71
75811;BMP280;64449;50.016;19.954;2023-02-11T09:34:47;99787.86;;;10.52
75811;BMP280;64449;50.016;19.954;2023-02-11T09:37:12;99794.39;;;10.28
75811;BMP280;64449;50.016;19.954;2023-02-11T09:39:38;99806.95;;;10.06
75811;BMP280;64449;50.016;19.954;2023-02-11T09:42:17;99810.56;;;9.83
75811;BMP280;64449;50.016;19.954;2023-02-11T09:44:45;99800.49;;;9.53
75811;BMP280;64449;50.016;19.954;2023-02-11T09:47:24;99794.17;;;9.32
75811;BMP280;64449;50.016;19.954;2023-02-11T09:50:12;99801.16;;;9.09
75811;BMP280;64449;50.016;19.954;2023-02-11T09:52:51;99804.82;;;8.91
75811;BMP280;64449;50.016;19.954;2023-02-11T09:55:33;99808.08;;;8.76
75811;BMP280;64449;50.016;19.954;2023-02-11T09:58:25;99803.14;;;8.65
75811;BMP280;64449;50.016;19.954;2023-02-11T10:04:03;99804.44;;;8.38
75811;BMP280;64449;50.016;19.954;2023-02-11T10:06:37;99790.27;;;8.28
75811;BMP280;64449;50.016;19.954;2023-02-11T10:17:37;99774.48;;;7.91
75811;BMP280;64449;50.016;19.954;2023-02-11T10:20:14;99774.34;;;7.83
75811;BMP280;64449;50.016;19.954;2023-02-11T10:22:52;99764.76;;;7.76
75811;BMP280;64449;50.016;19.954;2023-02-11T10:27:59;99756.58;;;7.71
75811;BMP280;64449;50.016;19.954;2023-02-11T10:30:27;99753.33;;;7.74
75811;BMP280;64449;50.016;19.954;2023-02-11T10:36:20;99753.75;;;7.71
75811;BMP280;64449;50.016;19.954;2023-02-11T10:38:48;99750.64;;;7.67
75811;BMP280;64449;50.016;19.954;2023-02-11T10:41:17;99742.86;;;7.61
75811;BMP280;64449;50.016;19.954;2023-02-11T10:43:44;99737.11;;;7.53
75811;BMP280;64449;50.016;19.954;2023-02-11T10:46:21;99733.08;;;7.49
75811;BMP280;64449;50.016;19.954;2023-02-11T10:48:50;99721.42;;;7.44
75811;BMP280;64449;50.016;19.954;2023-02-11T10:53:45;99710.95;;;7.39
75811;BMP280;64449;50.016;19.954;2023-02-11T10:56:19;99701.43;;;7.54
75811;BMP280;64449;50.016;19.954;2023-02-11T10:58:54;99697.55;;;7.67
75811;BMP280;64449;50.016;19.954;2023-02-11T11:01:20;99687.86;;;7.73
75811;BMP280;64449;50.016;19.954;2023-02-11T11:03:47;99663.42;;;7.78
75811;BMP280;64449;50.016;19.954;2023-02-11T11:06:14;99663.33;;;7.85
75811;BMP280;64449;50.016;19.954;2023-02-11T11:08:43;99646.83;;;8.03
75811;BMP280;64449;50.016;19.954;2023-02-11T11:11:11;99644.28;;;8.25
75811;BMP280;64449;50.016;19.954;2023-02-11T11:13:40;99639.00;;;8.51
75811;BMP280;64449;50.016;19.954;2023-02-11T11:18:44;99633.97;;;8.91
75811;BMP280;64449;50.016;19.954;2023-02-11T11:23:38;99603.83;;;9.05
75811;BMP280;64449;50.016;19.954;2023-02-11T11:26:10;99605.65;;;9.16
75811;BMP280;64449;50.016;19.954;2023-02-11T11:31:17;99619.35;;;9.62
75811;BMP280;64449;50.016;19.954;2023-02-11T11:33:44;99622.02;;;9.96
75811;BMP280;64449;50.016;19.954;2023-02-11T11:36:14;99621.34;;;10.12
75811;BMP280;64449;50.016;19.954;2023-02-11T11:38:48;99623.38;;;10.27
75811;BMP280;64449;50.016;19.954;2023-02-11T11:44:03;99617.30;;;10.66
75811;BMP280;64449;50.016;19.954;2023-02-11T11:46:42;99613.89;;;10.97
75811;BMP280;64449;50.016;19.954;2023-02-11T11:49:11;99602.63;;;11.18
75811;BMP280;64449;50.016;19.954;2023-02-11T11:51:39;99613.01;;;11.34
75811;BMP280;64449;50.016;19.954;2023-02-11T11:54:10;99613.02;;;11.38
75811;BMP280;64449;50.016;19.954;2023-02-11T11:56:38;99621.57;;;11.28
75811;BMP280;64449;50.016;19.954;2023-02-11T11:59:10;99638.58;;;11.11
75811;BMP280;64449;50.016;19.954;2023-02-11T12:14:58;99623.31;;;9.92
75811;BMP280;64449;50.016;19.954;2023-02-11T12:17:49;99629.72;;;9.76
75811;BMP280;64449;50.016;19.954;2023-02-11T12:26:15;99636.39;;;9.29
75811;BMP280;64449;50.016;19.954;2023-02-11T12:34:31;99649.36;;;8.85
75811;BMP280;64449;50.016;19.954;2023-02-11T12:37:34;99643.83;;;8.73
75811;BMP280;64449;50.016;19.954;2023-02-11T12:45:59;99617.56;;;8.40
75811;BMP280;64449;50.016;19.954;2023-02-11T12:54:20;99605.99;;;8.11
75811;BMP280;64449;50.016;19.954;2023-02-11T13:02:11;99571.80;;;7.72
75811;BMP280;64449;50.016;19.954;2023-02-11T13:04:42;99560.48;;;7.60
75811;BMP280;64449;50.016;19.954;2023-02-11T13:07:15;99551.95;;;7.50
75811;BMP280;64449;50.016;19.954;2023-02-11T13:09:49;99561.23;;;7.44
75811;BMP280;64449;50.016;19.954;2023-02-11T13:12:16;99567.08;;;7.38
75811;BMP280;64449;50.016;19.954;2023-02-11T13:15:05;99568.24;;;7.31
75811;BMP280;64449;50.016;19.954;2023-02-11T13:17:53;99555.13;;;7.27
75811;BMP280;64449;50.016;19.954;2023-02-11T13:20:31;99563.42;;;7.21
75811;BMP280;64449;50.016;19.954;2023-02-11T13:28:47;99570.68;;;7.03
75811;BMP280;64449;50.016;19.954;2023-02-11T13:31:13;99586.50;;;6.99
75811;BMP280;64449;50.016;19.954;2023-02-11T13:33:41;99575.40;;;6.96
75811;BMP280;64449;50.016;19.954;2023-02-11T13:38:34;99544.09;;;6.89
75811;BMP280;64449;50.016;19.954;2023-02-11T13:41:17;99526.08;;;6.86
75811;BMP280;64449;50.016;19.954;2023-02-11T13:44:24;99525.80;;;6.83
75811;BMP280;64449;50.016;19.954;2023-02-11T13:46:59;99527.84;;;6.80
75811;BMP280;64449;50.016;19.954;2023-02-11T13:49:29;99521.02;;;6.78
75811;BMP280;64449;50.016;19.954;2023-02-11T13:51:56;99509.86;;;6.77
75811;BMP280;64449;50.016;19.954;2023-02-11T13:54:29;99494.74;;;6.76
75811;BMP280;64449;50.016;19.954;2023-02-11T14:10:56;99518.19;;;6.71
75811;BMP280;64449;50.016;19.954;2023-02-11T14:13:29;99518.26;;;6.70
75811;BMP280;64449;50.016;19.954;2023-02-11T14:16:20;99523.39;;;6.70
75811;BMP280;64449;50.016;19.954;2023-02-11T14:23:45;99548.89;;;6.64
75811;BMP280;64449;50.016;19.954;2023-02-11T14:28:50;99554.36;;;6.61
75811;BMP280;64449;50.016;19.954;2023-02-11T14:31:25;99558.39;;;6.60
75811;BMP280;64449;50.016;19.954;2023-02-11T14:42:04;99578.95;;;6.59
75811;BMP280;64449;50.016;19.954;2023-02-11T14:44:31;99582.94;;;6.60
75811;BMP280;64449;50.016;19.954;2023-02-11T14:46:58;99582.06;;;6.61
75811;BMP280;64449;50.016;19.954;2023-02-11T14:49:28;99581.48;;;6.64
75811;BMP280;64449;50.016;19.954;2023-02-11T14:52:33;99577.01;;;6.66
75811;BMP280;64449;50.016;19.954;2023-02-11T14:55:15;99575.10;;;6.66
75811;BMP280;64449;50.016;19.954;2023-02-11T14:57:42;99578.61;;;6.66
75811;BMP280;64449;50.016;19.954;2023-02-11T15:00:18;99571.27;;;6.67
75811;BMP280;64449;50.016;19.954;2023-02-11T15:02:44;99567.87;;;6.66
75811;BMP280;64449;50.016;19.954;2023-02-11T15:05:23;99571.86;;;6.65
75811;BMP280;64449;50.016;19.954;2023-02-11T15:08:01;99572.02;;;6.65
75811;BMP280;64449;50.016;19.954;2023-02-11T15:10:34;99578.75;;;6.64
75811;BMP280;64449;50.016;19.954;2023-02-11T15:13:01;99580.13;;;6.64
75811;BMP280;64449;50.016;19.954;2023-02-11T15:15:28;99575.33;;;6.62
75811;BMP280;64449;50.016;19.954;2023-02-11T15:17:57;99582.92;;;6.59
75811;BMP280;64449;50.016;19.954;2023-02-11T15:20:26;99591.95;;;6.57
75811;BMP280;64449;50.016;19.954;2023-02-11T15:22:58;99594.95;;;6.55
75811;BMP280;64449;50.016;19.954;2023-02-11T15:25:25;99599.89;;;6.54
75811;BMP280;64449;50.016;19.954;2023-02-11T15:27:55;99602.24;;;6.50
75811;BMP280;64449;50.016;19.954;2023-02-11T15:32:51;99605.09;;;6.42
75811;BMP280;64449;50.016;19.954;2023-02-11T15:35:18;99600.84;;;6.37
75811;BMP280;64449;50.016;19.954;2023-02-11T15:37:44;99605.85;;;6.33
75811;BMP280;64449;50.016;19.954;2023-02-11T15:40:15;99613.70;;;6.28
75811;BMP280;64449;50.016;19.954;2023-02-11T15:43:02;99619.55;;;6.22
75811;BMP280;64449;50.016;19.954;2023-02-11T15:45:41;99622.68;;;6.19
75811;BMP280;64449;50.016;19.954;2023-02-11T15:48:27;99628.08;;;6.13
75811;BMP280;64449;50.016;19.954;2023-02-11T15:50:58;99628.30;;;6.10
75811;BMP280;64449;50.016;19.954;2023-02-11T15:53:31;99626.55;;;6.05
75811;BMP280;64449;50.016;19.954;2023-02-11T15:58:40;99632.46;;;5.99
75811;BMP280;64449;50.016;19.954;2023-02-11T16:01:07;99631.16;;;5.97
75811;BMP280;64449;50.016;19.954;2023-02-11T16:03:33;99632.59;;;5.96
75811;BMP280;64449;50.016;19.954;2023-02-11T16:09:03;99631.63;;;5.96
75811;BMP280;64449;50.016;19.954;2023-02-11T16:11:35;99628.71;;;5.97
75811;BMP280;64449;50.016;19.954;2023-02-11T16:14:01;99636.80;;;5.99
75811;BMP280;64449;50.016;19.954;2023-02-11T16:16:45;99628.10;;;6.02
75811;BMP280;64449;50.016;19.954;2023-02-11T16:19:17;99624.38;;;6.02
75811;BMP280;64449;50.016;19.954;2023-02-11T16:21:43;99629.84;;;6.04
75811;BMP280;64449;50.016;19.954;2023-02-11T16:24:21;99629.78;;;6.05
75811;BMP280;64449;50.016;19.954;2023-02-11T16:26:54;99638.37;;;6.05
75811;BMP280;64449;50.016;19.954;2023-02-11T16:29:25;99648.75;;;6.04
75811;BMP280;64449;50.016;19.954;2023-02-11T16:31:52;99645.92;;;6.04
75811;BMP280;64449;50.016;19.954;2023-02-11T16:34:20;99636.02;;;6.01
75811;BMP280;64449;50.016;19.954;2023-02-11T16:36:47;99633.85;;;5.98
75811;BMP280;64449;50.016;19.954;2023-02-11T16:39:14;99639.27;;;5.94
75811;BMP280;64449;50.016;19.954;2023-02-11T16:41:41;99641.92;;;5.90